Time;durP1;ratioP1;P1;durP2;ratioP2;P2;SDS_P1;SDS_P2;PMS_P1;PMS_P2;Temp;Humidity;BMP_temperature;BMP_pressure;BME280_temperature;BME280_humidity;BME280_pressure;Samples;Min_cycle;Max_cycle;Signal;HPM_P1;HPM_P2
2023/03/20 00:02:09;;;;;;;;;;;;;;;17.48;41.85;100687.50;4953278;28;99960;-63
2023/03/20 00:04:35;;;;;;;;;;;;;;;17.46;41.83;100690.56;4952968;28;98595;-63
2023/03/20 00:07:02;;;;;;;;;;;;;;;17.42;41.73;100686.84;4948829;28;98588;-63
2023/03/20 00:09:28;;;;;;;;;;;;;;;17.42;41.93;100695.00;4949774;28;97973;-64
2023/03/20 00:11:54;;;;;;;;;;;;;;;17.40;41.95;100692.56;4950236;28;128124;-66
2023/03/20 00:14:21;;;;;;;;;;;;;;;17.38;41.82;100697.53;4953564;28;129196;-65
2023/03/20 00:16:47;;;;;;;;;;;;;;;17.37;41.98;100695.09;4924751;28;98400;-63
2023/03/20 00:19:24;;;;;;;;;;;;;;;17.36;41.97;100686.13;4949295;28;98237;-64
2023/03/20 00:21:51;;;;;;;;;;;;;;;17.34;41.83;100691.09;4948964;28;98853;-63
2023/03/20 00:24:17;;;;;;;;;;;;;;;17.32;41.90;100689.78;4949075;28;98957;-63
2023/03/20 00:26:44;;;;;;;;;;;;;;;17.30;41.96;100692.03;4951738;28;98241;-65
2023/03/20 00:29:15;;;;;;;;;;;;;;;17.30;41.83;100697.47;4949888;28;98035;-63
2023/03/20 00:31:42;;;;;;;;;;;;;;;17.28;41.95;100705.13;4950743;28;99195;-66
2023/03/20 00:34:13;;;;;;;;;;;;;;;17.27;41.88;100701.59;4948469;28;100211;-63
2023/03/20 00:36:39;;;;;;;;;;;;;;;17.26;41.99;100699.19;4950559;28;98107;-64
2023/03/20 00:39:05;;;;;;;;;;;;;;;17.26;41.93;100693.75;4932496;28;119094;-65
2023/03/20 00:41:32;;;;;;;;;;;;;;;17.24;41.94;100696.75;4952327;28;98992;-63
2023/03/20 00:44:31;;;;;;;;;;;;;;;17.23;41.89;100694.34;4951239;28;98565;-62
2023/03/20 00:47:11;;;;;;;;;;;;;;;17.22;41.93;100692.75;4948648;28;99982;-64
2023/03/20 00:49:39;;;;;;;;;;;;;;;17.20;41.90;100693.03;4939241;28;99965;-63
2023/03/20 00:52:07;;;;;;;;;;;;;;;17.20;41.98;100694.94;4949378;28;98503;-63
2023/03/20 00:54:33;;;;;;;;;;;;;;;17.18;41.94;100698.78;4947707;28;99512;-63
2023/03/20 00:57:00;;;;;;;;;;;;;;;17.17;41.79;100696.34;4950923;28;97860;-65
2023/03/20 00:59:28;;;;;;;;;;;;;;;17.16;41.91;100689.31;4949105;28;97972;-63
2023/03/20 01:01:55;;;;;;;;;;;;;;;17.15;41.85;100693.94;4935288;28;98458;-63
2023/03/20 01:04:21;;;;;;;;;;;;;;;17.15;41.81;100687.69;4954776;28;98225;-65
2023/03/20 01:06:47;;;;;;;;;;;;;;;17.14;42.02;100689.63;4939116;28;127412;-63
2023/03/20 01:09:13;;;;;;;;;;;;;;;17.13;41.94;100684.47;4953690;28;105480;-65
2023/03/20 01:11:39;;;;;;;;;;;;;;;17.12;41.82;100689.09;4956700;28;98913;-65
2023/03/20 01:14:05;;;;;;;;;;;;;;;17.11;41.96;100683.97;4925455;28;99142;-63
2023/03/20 01:16:31;;;;;;;;;;;;;;;17.10;42.02;100679.66;4940107;28;99724;-66
2023/03/20 01:18:57;;;;;;;;;;;;;;;17.10;41.97;100683.19;4954876;28;122660;-65
2023/03/20 01:21:23;;;;;;;;;;;;;;;17.08;42.04;100679.94;4954771;28;129163;-65
2023/03/20 01:23:49;;;;;;;;;;;;;;;17.08;42.18;100679.13;4948967;28;128116;-63
2023/03/20 01:26:38;;;;;;;;;;;;;;;17.07;41.92;100682.97;4953301;28;98403;-64
2023/03/20 01:29:11;;;;;;;;;;;;;;;17.05;41.79;100683.28;4933914;28;119235;-65
2023/03/20 01:31:37;;;;;;;;;;;;;;;17.04;41.95;100687.09;4937528;28;98308;-64
2023/03/20 01:34:03;;;;;;;;;;;;;;;17.04;41.87;100680.88;4955866;28;98423;-62
2023/03/20 01:36:29;;;;;;;;;;;;;;;17.01;41.93;100685.00;4957775;28;98176;-63
2023/03/20 01:38:56;;;;;;;;;;;;;;;17.01;41.87;100685.00;4935117;28;112096;-63
2023/03/20 01:41:23;;;;;;;;;;;;;;;17.01;41.96;100684.19;4936724;28;100749;-63
2023/03/20 01:43:49;;;;;;;;;;;;;;;16.99;41.88;100684.50;4937070;28;98001;-63
2023/03/20 01:46:23;;;;;;;;;;;;;;;16.99;41.76;100695.41;4956380;28;98145;-64
2023/03/20 01:48:49;;;;;;;;;;;;;;;16.97;41.77;100684.00;4954964;28;98227;-65
2023/03/20 01:51:16;;;;;;;;;;;;;;;16.96;41.96;100685.09;4953371;28;100143;-65
2023/03/20 01:53:42;;;;;;;;;;;;;;;16.95;41.99;100678.06;4955791;28;117544;-62
2023/03/20 01:56:08;;;;;;;;;;;;;;;16.93;41.92;100686.50;4956494;28;110423;-65
2023/03/20 01:58:36;;;;;;;;;;;;;;;16.93;41.90;100686.50;4954549;28;97967;-64
2023/03/20 02:01:02;;;;;;;;;;;;;;;16.92;41.91;100692.28;4949394;28;99449;-65
2023/03/20 02:03:28;;;;;;;;;;;;;;;16.89;41.96;100680.06;4949060;28;124900;-65
2023/03/20 02:05:54;;;;;;;;;;;;;;;16.91;41.96;100687.94;4947649;28;127487;-65
2023/03/20 02:08:28;;;;;;;;;;;;;;;16.89;42.03;100687.44;4934314;28;122558;-63
2023/03/20 02:10:54;;;;;;;;;;;;;;;16.88;41.94;100689.34;4956371;28;128096;-65
2023/03/20 02:13:20;;;;;;;;;;;;;;;16.87;41.95;100681.50;4959462;28;98414;-63
2023/03/20 02:16:06;;;;;;;;;;;;;;;16.87;41.96;100689.66;4951081;28;98418;-65
2023/03/20 02:18:32;;;;;;;;;;;;;;;16.85;42.05;100687.22;4950061;28;97987;-65
2023/03/20 02:21:30;;;;;;;;;;;;;;;16.84;42.00;100685.63;4936937;28;130161;-65
2023/03/20 02:24:29;;;;;;;;;;;;;;;16.84;41.88;100693.00;4936743;28;98481;-65
2023/03/20 02:27:24;;;;;;;;;;;;;;;16.83;41.86;100689.47;4937995;28;98178;-65
2023/03/20 02:29:53;;;;;;;;;;;;;;;16.82;41.99;100695.19;4941149;28;97960;-64
2023/03/20 02:32:40;;;;;;;;;;;;;;;16.81;41.83;100693.59;4956033;28;98705;-65
2023/03/20 02:35:12;;;;;;;;;;;;;;;16.80;41.88;100695.50;4946550;28;98937;-62
2023/03/20 02:37:58;;;;;;;;;;;;;;;16.79;42.01;100687.66;4952945;28;98000;-64
2023/03/20 02:40:44;;;;;;;;;;;;;;;16.78;41.96;100686.84;4951723;28;97896;-65
2023/03/20 02:44:04;;;;;;;;;;;;;;;16.77;42.11;100692.59;4938300;28;98260;-65
2023/03/20 02:46:49;;;;;;;;;;;;;;;16.76;41.96;100690.97;4857799;28;98246;-63
2023/03/20 02:49:50;;;;;;;;;;;;;;;16.75;42.01;100682.00;4933064;28;98307;-63
2023/03/20 02:52:41;;;;;;;;;;;;;;;16.74;41.99;100682.28;4950173;28;99227;-65
2023/03/20 02:55:25;;;;;;;;;;;;;;;16.71;41.87;100675.53;4934530;28;124749;-65
2023/03/20 02:57:57;;;;;;;;;;;;;;;16.71;41.92;100680.97;4937988;28;126397;-65
2023/03/20 03:00:35;;;;;;;;;;;;;;;16.69;42.00;100678.53;4924201;28;98022;-65
2023/03/20 03:03:07;;;;;;;;;;;;;;;16.68;42.00;100676.94;4950588;28;99487;-62
2023/03/20 03:05:37;;;;;;;;;;;;;;;16.66;41.96;100673.72;4951039;28;98451;-62
2023/03/20 03:08:03;;;;;;;;;;;;;;;16.66;41.92;100673.72;4929789;28;98450;-62
2023/03/20 03:10:31;;;;;;;;;;;;;;;16.65;41.95;100677.53;4937013;28;98391;-62
2023/03/20 03:12:57;;;;;;;;;;;;;;;16.63;41.93;100679.75;4921200;28;110135;-63
2023/03/20 03:15:37;;;;;;;;;;;;;;;16.63;41.93;100677.03;4921946;28;126918;-65
2023/03/20 03:18:05;;;;;;;;;;;;;;;16.63;41.79;100682.50;4921632;28;125153;-62
2023/03/20 03:20:33;;;;;;;;;;;;;;;16.61;41.87;100676.53;4925456;28;100092;-66
2023/03/20 03:22:59;;;;;;;;;;;;;;;16.61;41.93;100679.25;4951315;28;97933;-66
2023/03/20 03:25:26;;;;;;;;;;;;;;;16.60;42.03;100677.63;4949862;28;97978;-63
2023/03/20 03:28:18;;;;;;;;;;;;;;;16.59;42.08;100678.75;4932266;28;119785;-63
2023/03/20 03:30:44;;;;;;;;;;;;;;;16.57;42.08;100683.69;4943715;28;126789;-65
2023/03/20 03:33:18;;;;;;;;;;;;;;;16.55;41.98;100680.47;4947518;28;122479;-66
2023/03/20 03:35:45;;;;;;;;;;;;;;;16.53;41.90;100679.16;4951816;28;122055;-64
2023/03/20 03:38:20;;;;;;;;;;;;;;;16.49;41.96;100678.13;4931253;28;99527;-65
2023/03/20 03:40:58;;;;;;;;;;;;;;;16.46;42.06;100679.53;4949375;28;98392;-65
2023/03/20 03:43:30;;;;;;;;;;;;;;;16.42;41.88;100673.88;4922985;28;98056;-64
2023/03/20 03:46:11;;;;;;;;;;;;;;;16.39;42.11;100677.25;4952067;28;125957;-63
2023/03/20 03:48:47;;;;;;;;;;;;;;;16.36;42.00;100672.38;4951749;28;98598;-64
2023/03/20 03:51:15;;;;;;;;;;;;;;;16.34;41.89;100677.31;4940941;28;99717;-62
2023/03/20 03:53:49;;;;;;;;;;;;;;;16.31;41.94;100679.81;4931126;28;98074;-63
2023/03/20 03:56:16;;;;;;;;;;;;;;;16.28;41.80;100670.38;4934670;28;98283;-62
2023/03/20 03:58:44;;;;;;;;;;;;;;;16.26;41.91;100669.03;4936162;28;128952;-62
2023/03/20 04:01:10;;;;;;;;;;;;;;;16.24;41.93;100674.00;4939190;28;111714;-62
2023/03/20 04:03:41;;;;;;;;;;;;;;;16.22;42.17;100673.47;4920110;28;105849;-65
2023/03/20 04:06:09;;;;;;;;;;;;;;;16.18;41.87;100684.16;4920226;28;113854;-65
2023/03/20 04:08:35;;;;;;;;;;;;;;;16.16;42.18;100676.28;4921307;28;121426;-65
2023/03/20 04:11:01;;;;;;;;;;;;;;;16.13;41.97;100678.81;4956274;28;98515;-62
2023/03/20 04:13:26;;;;;;;;;;;;;;;16.12;42.20;100682.63;4955136;28;98102;-63
2023/03/20 04:15:52;;;;;;;;;;;;;;;16.09;42.02;100685.94;4951928;28;128132;-62
2023/03/20 04:18:18;;;;;;;;;;;;;;;16.07;42.12;100688.16;4951318;28;103849;-64
2023/03/20 04:20:45;;;;;;;;;;;;;;;16.05;41.97;100693.88;4954070;28;116966;-62
2023/03/20 04:23:11;;;;;;;;;;;;;;;16.02;42.13;100686.31;4931159;28;98772;-64
2023/03/20 04:25:37;;;;;;;;;;;;;;;16.00;42.11;100685.03;4949871;28;126406;-62
2023/03/20 04:28:03;;;;;;;;;;;;;;;15.99;42.25;100688.81;4933534;28;127670;-62
2023/03/20 04:30:29;;;;;;;;;;;;;;;15.97;42.19;100691.06;4952236;28;115849;-62
2023/03/20 04:32:56;;;;;;;;;;;;;;;15.94;41.97;100689.72;4951121;28;99138;-63
2023/03/20 04:35:21;;;;;;;;;;;;;;;15.92;42.05;100691.94;4930634;28;98028;-62
2023/03/20 04:37:47;;;;;;;;;;;;;;;15.90;42.02;100694.16;4949570;28;128064;-64
2023/03/20 04:40:13;;;;;;;;;;;;;;;15.89;42.10;100692.53;4954537;28;126147;-62
2023/03/20 04:42:39;;;;;;;;;;;;;;;15.87;42.11;100694.72;4955411;28;123565;-62
2023/03/20 04:45:06;;;;;;;;;;;;;;;15.86;42.09;100693.13;4952457;28;98981;-62
2023/03/20 04:47:32;;;;;;;;;;;;;;;15.83;42.12;100705.38;4953496;28;125046;-62
2023/03/20 04:49:58;;;;;;;;;;;;;;;15.82;41.98;100705.69;4938832;28;127183;-64
2023/03/20 04:52:24;;;;;;;;;;;;;;;15.80;42.08;100708.72;4955482;28;122062;-64
2023/03/20 04:54:50;;;;;;;;;;;;;;;15.80;42.10;100710.59;4952869;28;126805;-63
2023/03/20 04:57:16;;;;;;;;;;;;;;;15.79;42.14;100720.66;4925653;28;128307;-62
2023/03/20 04:59:42;;;;;;;;;;;;;;;15.78;41.94;100718.25;4955287;28;100493;-62
2023/03/20 05:02:08;;;;;;;;;;;;;;;15.78;41.95;100726.41;4952535;28;121748;-63
2023/03/20 05:04:34;;;;;;;;;;;;;;;15.75;42.07;100722.38;4955967;28;98647;-63
2023/03/20 05:07:00;;;;;;;;;;;;;;;15.75;42.28;100722.38;4952742;28;98920;-64
2023/03/20 05:09:26;;;;;;;;;;;;;;;15.74;42.22;100722.69;4952781;28;111470;-62
2023/03/20 05:11:52;;;;;;;;;;;;;;;15.74;41.88;100726.19;4937792;28;101291;-62
2023/03/20 05:14:18;;;;;;;;;;;;;;;15.75;42.14;100729.72;4936484;28;127514;-65
2023/03/20 05:16:44;;;;;;;;;;;;;;;15.75;42.06;100735.97;4942190;28;128141;-65
2023/03/20 05:19:10;;;;;;;;;;;;;;;15.78;41.95;100731.84;4951803;28;118305;-64
2023/03/20 05:21:36;;;;;;;;;;;;;;;15.80;42.16;100737.78;4953249;28;122790;-61
2023/03/20 05:24:01;;;;;;;;;;;;;;;15.82;42.06;100739.13;4937534;28;115379;-66
2023/03/20 05:26:27;;;;;;;;;;;;;;;15.84;42.05;100744.28;4954787;28;98975;-64
2023/03/20 05:28:53;;;;;;;;;;;;;;;15.87;42.00;100743.66;4947522;28;128399;-62
2023/03/20 05:31:19;;;;;;;;;;;;;;;15.89;42.05;100739.56;4952789;28;98226;-62
2023/03/20 05:33:45;;;;;;;;;;;;;;;15.91;41.89;100739.25;4947072;28;98855;-64
2023/03/20 05:36:11;;;;;;;;;;;;;;;15.94;42.00;100738.66;4947601;28;128294;-65
2023/03/20 05:38:37;;;;;;;;;;;;;;;15.96;41.91;100733.75;4949918;28;126381;-63
2023/03/20 05:41:03;;;;;;;;;;;;;;;16.00;41.92;100742.13;4933117;28;122419;-65
2023/03/20 05:43:29;;;;;;;;;;;;;;;16.02;41.73;100742.63;4934430;28;126445;-62
2023/03/20 05:45:55;;;;;;;;;;;;;;;16.06;41.84;100747.16;4951876;28;128348;-65
2023/03/20 05:48:22;;;;;;;;;;;;;;;16.09;41.84;100748.47;4950425;28;98020;-63
2023/03/20 05:50:47;;;;;;;;;;;;;;;16.11;41.83;100748.97;4949952;28;98977;-63
2023/03/20 05:53:13;;;;;;;;;;;;;;;16.14;41.90;100745.66;4951523;28;128515;-63
2023/03/20 05:55:40;;;;;;;;;;;;;;;16.15;41.79;100753.56;4948827;28;127536;-63
2023/03/20 05:58:06;;;;;;;;;;;;;;;16.19;41.81;100751.84;4951989;28;98200;-63
2023/03/20 06:00:32;;;;;;;;;;;;;;;16.23;41.92;100756.66;4951126;28;122628;-62
2023/03/20 06:02:58;;;;;;;;;;;;;;;16.24;41.84;100759.09;4950250;28;126855;-62
2023/03/20 06:05:24;;;;;;;;;;;;;;;16.27;41.73;100761.25;4952665;28;128812;-63
2023/03/20 06:07:50;;;;;;;;;;;;;;;16.31;41.78;100755.97;4951297;28;127941;-63
2023/03/20 06:10:16;;;;;;;;;;;;;;;16.37;41.89;100762.97;4953676;28;98276;-65
2023/03/20 06:12:42;;;;;;;;;;;;;;;16.40;41.89;100759.66;4953001;28;99114;-65
2023/03/20 06:15:08;;;;;;;;;;;;;;;16.43;41.79;100759.88;4950029;28;99427;-63
2023/03/20 06:17:34;;;;;;;;;;;;;;;16.47;41.62;100760.06;4954660;28;121606;-66
2023/03/20 06:20:00;;;;;;;;;;;;;;;16.51;41.60;100766.53;4951371;28;123437;-65
2023/03/20 06:22:26;;;;;;;;;;;;;;;16.53;41.64;100767.03;4957026;28;99213;-66
2023/03/20 06:24:52;;;;;;;;;;;;;;;16.59;41.61;100768.56;4938168;28;100111;-65
2023/03/20 06:27:18;;;;;;;;;;;;;;;16.63;41.63;100771.50;4952687;28;127711;-62
2023/03/20 06:29:43;;;;;;;;;;;;;;;16.65;41.76;100770.06;4950924;28;122432;-62
2023/03/20 06:32:11;;;;;;;;;;;;;;;16.67;41.56;100776.03;4948570;28;126827;-63
2023/03/20 06:34:37;;;;;;;;;;;;;;;16.68;41.81;100766.75;4936527;28;99099;-65
2023/03/20 06:37:03;;;;;;;;;;;;;;;16.71;41.65;100770.78;4950776;28;126605;-65
2023/03/20 06:39:28;;;;;;;;;;;;;;;16.74;41.67;100772.13;4952013;28;122926;-65
2023/03/20 06:41:54;;;;;;;;;;;;;;;16.78;41.54;100763.06;4953499;28;98427;-65
2023/03/20 06:44:20;;;;;;;;;;;;;;;16.85;41.53;100768.91;4950644;28;120058;-62
2023/03/20 06:46:46;;;;;;;;;;;;;;;16.92;41.70;100760.34;4952940;28;127915;-62
2023/03/20 06:49:12;;;;;;;;;;;;;;;17.02;41.58;100770.25;4943949;28;123236;-65
2023/03/20 06:51:38;;;;;;;;;;;;;;;17.08;41.40;100767.09;4935553;28;129161;-63
2023/03/20 06:54:04;;;;;;;;;;;;;;;17.18;41.37;100774.25;4954147;28;98195;-63
2023/03/20 06:56:31;;;;;;;;;;;;;;;17.29;41.44;100772.94;4940735;28;98208;-63
2023/03/20 06:58:57;;;;;;;;;;;;;;;17.41;41.19;100773.22;4955555;28;97869;-62
2023/03/20 07:01:23;;;;;;;;;;;;;;;17.47;41.24;100770.38;4954378;28;99406;-63
2023/03/20 07:03:49;;;;;;;;;;;;;;;17.50;41.41;100773.28;4954599;28;98407;-63
2023/03/20 07:06:16;;;;;;;;;;;;;;;17.53;41.44;100785.50;4939300;28;98097;-65
2023/03/20 07:08:42;;;;;;;;;;;;;;;17.56;41.22;100785.69;4937311;28;98151;-63
2023/03/20 07:11:08;;;;;;;;;;;;;;;17.65;41.30;100777.59;4955178;28;127663;-66
2023/03/20 07:13:34;;;;;;;;;;;;;;;17.82;41.04;100782.44;4952525;28;98674;-65
2023/03/20 07:16:01;;;;;;;;;;;;;;;17.93;40.92;100786.53;4949921;28;117621;-64
2023/03/20 07:18:27;;;;;;;;;;;;;;;18.08;41.09;100782.63;4950297;28;98120;-63
2023/03/20 07:20:54;;;;;;;;;;;;;;;18.14;41.01;100786.84;4954589;28;128129;-63
2023/03/20 07:23:20;;;;;;;;;;;;;;;18.09;41.10;100792.44;4920341;28;99859;-65
2023/03/20 07:25:45;;;;;;;;;;;;;;;18.07;41.21;100789.19;4953337;28;119610;-63
2023/03/20 07:28:12;;;;;;;;;;;;;;;18.11;41.34;100801.09;4945579;28;108977;-65
2023/03/20 07:30:37;;;;;;;;;;;;;;;18.11;41.20;100799.16;4942413;28;127152;-63
2023/03/20 07:33:03;;;;;;;;;;;;;;;18.12;41.40;100805.44;4946448;28;98838;-65
2023/03/20 07:35:29;;;;;;;;;;;;;;;18.14;41.29;100797.75;4944358;28;105631;-63
2023/03/20 07:37:55;;;;;;;;;;;;;;;18.17;41.48;100794.41;4951795;28;98080;-65
2023/03/20 07:40:21;;;;;;;;;;;;;;;18.22;41.35;100799.72;4950275;28;125920;-62
2023/03/20 07:42:47;;;;;;;;;;;;;;;18.33;41.34;100803.81;4950601;28;128084;-65
2023/03/20 07:45:15;;;;;;;;;;;;;;;18.45;41.40;100802.44;4951719;28;99145;-63
2023/03/20 07:47:41;;;;;;;;;;;;;;;18.53;41.37;100810.69;4950202;28;98222;-65
2023/03/20 07:50:07;;;;;;;;;;;;;;;18.51;41.28;100814.84;4933537;28;128057;-63
2023/03/20 07:52:33;;;;;;;;;;;;;;;18.52;41.39;100805.56;4949992;28;120992;-63
2023/03/20 07:54:59;;;;;;;;;;;;;;;18.54;41.56;100827.88;4951296;28;98093;-63
2023/03/20 07:57:25;;;;;;;;;;;;;;;18.57;41.51;100824.53;4948076;28;122275;-63
2023/03/20 07:59:51;;;;;;;;;;;;;;;18.60;41.35;100827.44;4949643;28;127889;-65
2023/03/20 08:02:17;;;;;;;;;;;;;;;18.65;41.46;100821.03;4947115;28;128142;-63
2023/03/20 08:04:43;;;;;;;;;;;;;;;18.71;41.50;100819.81;4948110;28;126463;-63
2023/03/20 08:07:09;;;;;;;;;;;;;;;18.75;41.30;100818.06;4950972;28;109526;-65
2023/03/20 08:09:35;;;;;;;;;;;;;;;18.84;41.27;100820.84;4952366;28;98468;-66
2023/03/20 08:12:02;;;;;;;;;;;;;;;18.96;41.18;100812.88;4950865;28;98277;-63
2023/03/20 08:14:27;;;;;;;;;;;;;;;19.06;41.26;100817.22;4951689;28;120965;-65
2023/03/20 08:16:53;;;;;;;;;;;;;;;19.13;41.31;100817.56;4953297;28;113409;-66
2023/03/20 08:19:20;;;;;;;;;;;;;;;19.22;41.21;100815.69;4955160;28;98161;-63
2023/03/20 08:21:46;;;;;;;;;;;;;;;19.35;41.19;100819.44;4953009;28;98028;-63
2023/03/20 08:24:12;;;;;;;;;;;;;;;19.45;41.13;100813.63;4952764;28;98117;-65
2023/03/20 08:26:38;;;;;;;;;;;;;;;19.54;40.99;100806.28;4950815;28;120107;-65
2023/03/20 08:29:03;;;;;;;;;;;;;;;19.66;40.74;100804.88;4953107;28;100310;-66
2023/03/20 08:31:30;;;;;;;;;;;;;;;19.78;40.70;100810.53;4957207;28;127010;-64
2023/03/20 08:33:56;;;;;;;;;;;;;;;19.89;40.69;100814.56;4954957;28;97993;-67
2023/03/20 08:36:22;;;;;;;;;;;;;;;19.98;40.80;100809.06;4950633;28;97759;-65
2023/03/20 08:38:48;;;;;;;;;;;;;;;20.06;40.63;100809.06;4958055;28;109599;-63
2023/03/20 08:41:15;;;;;;;;;;;;;;;20.18;40.67;100813.88;4957743;28;98563;-65
2023/03/20 08:43:40;;;;;;;;;;;;;;;20.25;40.66;100811.47;4955638;28;119802;-66
2023/03/20 08:46:06;;;;;;;;;;;;;;;20.29;40.81;100817.91;4955229;28;121694;-66
2023/03/20 08:48:32;;;;;;;;;;;;;;;20.29;40.62;100815.16;4959146;28;98503;-63
2023/03/20 08:50:58;;;;;;;;;;;;;;;20.33;40.74;100818.06;4954920;28;128208;-65
2023/03/20 08:53:24;;;;;;;;;;;;;;;20.37;40.83;100818.22;4954792;28;127473;-65
2023/03/20 08:55:50;;;;;;;;;;;;;;;20.43;40.97;100822.38;4956926;28;99557;-67
2023/03/20 08:58:17;;;;;;;;;;;;;;;20.44;40.81;100819.34;4953136;28;98794;-65
2023/03/20 09:00:42;;;;;;;;;;;;;;;20.44;40.95;100821.28;4945079;28;120987;-65
2023/03/20 09:03:15;;;;;;;;;;;;;;;20.45;40.93;100811.94;4941547;28;99005;-66
2023/03/20 09:05:44;;;;;;;;;;;;;;;20.58;40.83;100814.50;4955089;28;117949;-65
2023/03/20 09:08:10;;;;;;;;;;;;;;;20.79;40.63;100814.59;4954297;28;98469;-65
2023/03/20 09:10:36;;;;;;;;;;;;;;;20.86;40.60;100816.00;4952318;28;127260;-63
2023/03/20 09:13:02;;;;;;;;;;;;;;;20.98;40.55;100818.88;4952651;28;126432;-63
2023/03/20 09:15:28;;;;;;;;;;;;;;;21.16;40.41;100819.59;4958099;28;97990;-63
2023/03/20 09:17:54;;;;;;;;;;;;;;;21.06;40.62;100824.34;4955875;28;128190;-66
2023/03/20 09:20:20;;;;;;;;;;;;;;;20.91;40.77;100832.28;4955268;28;129877;-63
2023/03/20 09:22:46;;;;;;;;;;;;;;;20.75;41.03;100835.56;4938988;28;127511;-66
2023/03/20 09:25:12;;;;;;;;;;;;;;;20.57;41.23;100836.72;4954650;28;97995;-63
2023/03/20 09:27:38;;;;;;;;;;;;;;;20.43;41.48;100842.34;4956673;28;127493;-65
2023/03/20 09:30:06;;;;;;;;;;;;;;;20.29;41.54;100833.53;4948409;28;101173;-65
2023/03/20 09:32:32;;;;;;;;;;;;;;;20.17;41.57;100844.31;4940058;28;98007;-66
2023/03/20 09:34:58;;;;;;;;;;;;;;;20.05;41.58;100851.25;4953394;28;116351;-63
2023/03/20 09:37:24;;;;;;;;;;;;;;;19.93;41.52;100850.28;4953227;28;99312;-65
2023/03/20 09:39:50;;;;;;;;;;;;;;;19.82;41.72;100855.25;4950285;28;128067;-66
2023/03/20 09:42:35;;;;;;;;;;;;;;;19.72;41.63;100850.88;4952843;28;99383;-65
2023/03/20 09:45:10;;;;;;;;;;;;;;;19.66;41.86;100860.38;4951914;28;108393;-65
2023/03/20 09:47:50;;;;;;;;;;;;;;;19.60;41.88;100867.06;4949820;28;99111;-65
2023/03/20 09:50:52;;;;;;;;;;;;;;;19.48;41.87;100875.09;4921900;28;114545;-65
2023/03/20 09:53:28;;;;;;;;;;;;;;;19.34;42.12;100875.22;4939582;28;98354;-67
2023/03/20 09:55:54;;;;;;;;;;;;;;;19.27;41.98;100872.94;4938224;28;97928;-64
2023/03/20 09:58:22;;;;;;;;;;;;;;;19.21;42.11;100871.44;4933840;28;99712;-63
2023/03/20 10:00:48;;;;;;;;;;;;;;;19.17;41.96;100865.00;4937248;28;125959;-65
2023/03/20 10:03:20;;;;;;;;;;;;;;;19.17;41.97;100877.84;4953628;28;126719;-65
2023/03/20 10:05:53;;;;;;;;;;;;;;;19.21;41.95;100874.19;4932903;28;97968;-63
2023/03/20 10:08:22;;;;;;;;;;;;;;;19.22;41.79;100873.09;4954538;28;98342;-65
2023/03/20 10:11:09;;;;;;;;;;;;;;;19.22;41.68;100867.63;4951210;28;125032;-63
2023/03/20 10:13:57;;;;;;;;;;;;;;;19.23;41.63;100868.41;4955446;28;98390;-64
2023/03/20 10:16:29;;;;;;;;;;;;;;;19.24;41.73;100865.34;4951995;28;97963;-64
2023/03/20 10:19:19;;;;;;;;;;;;;;;19.28;41.74;100871.00;4939134;28;98171;-65
2023/03/20 10:21:49;;;;;;;;;;;;;;;19.38;41.67;100866.06;4937968;28;99100;-64
2023/03/20 10:24:18;;;;;;;;;;;;;;;19.55;41.47;100868.03;4949524;28;104168;-66
2023/03/20 10:26:45;;;;;;;;;;;;;;;19.70;41.20;100866.00;4952160;28;97947;-63
2023/03/20 10:29:26;;;;;;;;;;;;;;;19.77;41.33;100861.69;4946352;28;126236;-66
2023/03/20 10:31:58;;;;;;;;;;;;;;;19.75;41.25;100877.59;4921220;28;99998;-66
2023/03/20 10:34:31;;;;;;;;;;;;;;;19.68;41.43;100879.19;4950024;28;98608;-65
2023/03/20 10:37:16;;;;;;;;;;;;;;;19.59;41.70;100882.66;4952905;28;98352;-63
2023/03/20 10:40:03;;;;;;;;;;;;;;;19.48;41.70;100872.34;4939613;28;111090;-63
2023/03/20 10:42:32;;;;;;;;;;;;;;;19.47;41.80;100870.75;4942799;28;98736;-63
2023/03/20 10:45:13;;;;;;;;;;;;;;;19.53;41.60;100872.19;4934615;28;122349;-65
2023/03/20 10:47:40;;;;;;;;;;;;;;;19.78;41.46;100867.94;4933656;28;99183;-66
2023/03/20 10:50:35;;;;;;;;;;;;;;;19.77;41.49;100864.41;4937685;28;124369;-65
2023/03/20 10:53:01;;;;;;;;;;;;;;;19.78;41.32;100867.94;4954492;28;98466;-65
2023/03/20 10:55:29;;;;;;;;;;;;;;;19.70;41.68;100880.47;4938981;28;123604;-65
2023/03/20 10:58:17;;;;;;;;;;;;;;;19.57;41.79;100873.16;5014022;27;97754;-62
2023/03/20 11:00:43;;;;;;;;;;;;;;;19.46;41.95;100883.63;4983333;27;97888;-62
2023/03/20 11:03:20;;;;;;;;;;;;;;;19.41;41.73;100889.19;4996534;27;98835;-62
2023/03/20 11:05:47;;;;;;;;;;;;;;;19.35;41.80;100891.28;4985955;27;98366;-64
2023/03/20 11:08:13;;;;;;;;;;;;;;;19.27;41.81;100874.84;4982493;27;98574;-64
2023/03/20 11:10:40;;;;;;;;;;;;;;;19.24;42.06;100879.03;4996745;27;98187;-63
2023/03/20 11:13:46;;;;;;;;;;;;;;;19.22;42.04;100875.00;4996653;27;99380;-64
2023/03/20 11:16:17;;;;;;;;;;;;;;;19.22;41.75;100872.28;4997034;27;99408;-65
2023/03/20 11:18:43;;;;;;;;;;;;;;;19.22;41.81;100875.00;4996962;27;98181;-65
2023/03/20 11:21:34;;;;;;;;;;;;;;;19.20;41.92;100869.03;4999446;27;110695;-64
2023/03/20 11:24:00;;;;;;;;;;;;;;;19.24;41.79;100867.28;5002220;27;98981;-64
2023/03/20 11:26:35;;;;;;;;;;;;;;;19.25;41.67;100868.88;4981491;27;99983;-62
2023/03/20 11:29:01;;;;;;;;;;;;;;;19.19;41.74;100867.44;4994128;27;98073;-64
2023/03/20 11:31:37;;;;;;;;;;;;;;;19.16;41.95;100873.53;4995279;27;110756;-65
2023/03/20 11:34:10;;;;;;;;;;;;;;;19.15;41.65;100870.00;4998931;27;98840;-64
2023/03/20 11:36:38;;;;;;;;;;;;;;;19.21;41.66;100873.38;5000851;27;98317;-65
2023/03/20 11:39:13;;;;;;;;;;;;;;;19.23;41.68;100877.41;4975388;27;98068;-64
2023/03/20 11:41:46;;;;;;;;;;;;;;;19.29;41.62;100876.13;4996197;27;100566;-62
2023/03/20 11:44:23;;;;;;;;;;;;;;;19.52;41.37;100870.59;4996705;27;99568;-62
2023/03/20 11:47:04;;;;;;;;;;;;;;;19.70;41.33;100861.34;5001493;27;99120;-62
2023/03/20 11:49:30;;;;;;;;;;;;;;;19.88;41.25;100869.56;4984300;27;98318;-62
2023/03/20 11:52:00;;;;;;;;;;;;;;;19.92;41.23;100867.78;5000505;27;98397;-62
2023/03/20 11:54:26;;;;;;;;;;;;;;;19.97;41.15;100859.47;4992701;27;101301;-62
2023/03/20 11:56:57;;;;;;;;;;;;;;;20.04;41.02;100855.13;4994948;27;127505;-63
2023/03/20 11:59:34;;;;;;;;;;;;;;;20.14;41.05;100851.25;4996467;27;98169;-65
2023/03/20 12:02:01;;;;;;;;;;;;;;;20.18;41.28;100856.88;4999458;27;98061;-62
2023/03/20 12:04:32;;;;;;;;;;;;;;;20.11;41.34;100854.59;4997320;27;115423;-65
2023/03/20 12:07:31;;;;;;;;;;;;;;;20.00;41.52;100856.06;4996708;27;98565;-64
2023/03/20 12:09:59;;;;;;;;;;;;;;;19.99;41.39;100852.50;4983692;27;98392;-64
2023/03/20 12:12:37;;;;;;;;;;;;;;;20.02;41.40;100851.88;4986162;27;98647;-64
2023/03/20 12:15:12;;;;;;;;;;;;;;;20.02;41.38;100846.41;4987146;27;98849;-62
2023/03/20 12:17:43;;;;;;;;;;;;;;;20.06;41.36;100841.09;4985123;27;101308;-62
2023/03/20 12:20:31;;;;;;;;;;;;;;;20.19;41.20;100840.13;4969918;27;98025;-62
2023/03/20 12:23:45;;;;;;;;;;;;;;;20.30;41.21;100837.88;4988517;27;98501;-65
2023/03/20 12:26:34;;;;;;;;;;;;;;;20.56;40.99;100837.88;4985389;27;98286;-63
2023/03/20 12:29:07;;;;;;;;;;;;;;;20.68;40.89;100840.72;4985553;27;99034;-66
2023/03/20 12:31:42;;;;;;;;;;;;;;;20.71;40.99;100842.81;4986531;27;114189;-64
2023/03/20 12:34:19;;;;;;;;;;;;;;;20.62;41.10;100841.22;4985566;27;98365;-64
2023/03/20 12:36:46;;;;;;;;;;;;;;;20.60;41.29;100844.31;4986592;27;99174;-62
2023/03/20 12:39:15;;;;;;;;;;;;;;;20.50;41.38;100839.94;4981297;27;97977;-66
2023/03/20 12:41:56;;;;;;;;;;;;;;;20.36;41.63;100844.78;4986197;27;98093;-62
2023/03/20 12:44:34;;;;;;;;;;;;;;;20.21;41.68;100837.88;4988918;27;101692;-65
2023/03/20 12:47:19;;;;;;;;;;;;;;;20.08;41.87;100844.31;4968737;27;99082;-62
2023/03/20 12:50:07;;;;;;;;;;;;;;;19.93;41.88;100839.34;4985693;27;98609;-64